createdAt,value
2018-02-27T00:00:55.376Z,1024.78
2018-02-27T00:01:55.796Z,1024.76
2018-02-27T00:02:55.370Z,1024.78
2018-02-27T00:03:55.365Z,1024.75
2018-02-27T00:04:55.379Z,1024.75
2018-02-27T00:05:55.239Z,1024.77
2018-02-27T00:06:55.751Z,1024.72
2018-02-27T00:07:55.390Z,1024.72
2018-02-27T00:08:55.382Z,1024.75
2018-02-27T00:09:55.251Z,1024.71
2018-02-27T00:10:55.397Z,1024.7
2018-02-27T00:11:55.872Z,1024.74
2018-02-27T00:12:55.416Z,1024.76
2018-02-27T00:13:55.414Z,1024.7
2018-02-27T00:14:55.265Z,1024.72
2018-02-27T00:15:55.265Z,1024.74
2018-02-27T00:16:55.268Z,1024.86
2018-02-27T00:17:55.287Z,1024.76
2018-02-27T00:18:55.277Z,1024.75
2018-02-27T00:19:55.277Z,1024.79
2018-02-27T00:20:55.287Z,1024.78
2018-02-27T00:21:55.739Z,1024.78
2018-02-27T00:22:55.288Z,1024.8
2018-02-27T00:23:55.303Z,1024.77
2018-02-27T00:24:55.304Z,1024.75
2018-02-27T00:25:55.297Z,1024.76
2018-02-27T00:26:55.326Z,1024.73
2018-02-27T00:27:55.298Z,1024.76
2018-02-27T00:28:55.388Z,1024.72
2018-02-27T00:29:55.357Z,1024.7
2018-02-27T00:30:55.304Z,1024.68
2018-02-27T00:31:55.804Z,1024.7
2018-02-27T00:32:55.297Z,1024.7
2018-02-27T00:33:55.311Z,1024.72
2018-02-27T00:34:55.330Z,1024.69
2018-02-27T00:35:55.308Z,1024.68
2018-02-27T00:36:55.330Z,1024.7
2018-02-27T00:37:55.332Z,1024.7
2018-02-27T00:38:55.340Z,1024.72
2018-02-27T00:39:55.329Z,1024.7
2018-02-27T00:40:55.333Z,1024.68
2018-02-27T00:41:55.907Z,1024.64
2018-02-27T00:42:55.367Z,1024.54
2018-02-27T00:43:55.340Z,1024.65
2018-02-27T00:44:55.334Z,1024.63
2018-02-27T00:45:55.342Z,1024.6
2018-02-27T00:46:55.338Z,1024.6
2018-02-27T00:47:55.338Z,1024.66
2018-02-27T00:48:55.515Z,1024.62
2018-02-27T00:49:55.352Z,1024.63
2018-02-27T00:50:55.516Z,1024.6
2018-02-27T00:51:55.527Z,1024.61
2018-02-27T00:52:55.528Z,1024.58
2018-02-27T00:53:55.532Z,1024.62
2018-02-27T00:54:55.362Z,1024.64
2018-02-27T00:55:55.534Z,1024.59
2018-02-27T00:56:55.543Z,1024.6
2018-02-27T00:57:55.537Z,1024.61
2018-02-27T00:58:55.566Z,1024.6
2018-02-27T00:59:55.385Z,1024.53
2018-02-27T01:00:55.547Z,1024.55
2018-02-27T01:01:55.549Z,1024.55
2018-02-27T01:02:55.387Z,1024.54
2018-02-27T01:03:55.545Z,1024.49
2018-02-27T01:04:55.555Z,1024.45
2018-02-27T01:05:55.551Z,1024.41
2018-02-27T01:06:55.591Z,1024.44
2018-02-27T01:07:55.393Z,1024.38
2018-02-27T01:08:55.394Z,1024.43
2018-02-27T01:09:55.433Z,1024.42
2018-02-27T01:10:55.409Z,1024.44
2018-02-27T01:11:55.417Z,1024.42
2018-02-27T01:12:55.406Z,1024.47
2018-02-27T01:13:55.427Z,1024.43
2018-02-27T01:14:55.425Z,1024.41
2018-02-27T01:15:55.424Z,1024.46
2018-02-27T01:16:55.422Z,1024.46
2018-02-27T01:17:55.416Z,1024.39
2018-02-27T01:18:55.419Z,1024.43
2018-02-27T01:19:55.434Z,1024.39
2018-02-27T01:20:55.424Z,1024.4
2018-02-27T01:21:55.481Z,1024.46
2018-02-27T01:22:55.438Z,1024.38
2018-02-27T01:23:55.445Z,1024.39
2018-02-27T01:24:55.465Z,1024.38
2018-02-27T01:25:55.554Z,1024.39
2018-02-27T01:28:55.485Z,1024.37
2018-02-27T01:29:55.453Z,1024.39
2018-02-27T01:30:55.455Z,1024.35
2018-02-27T01:31:55.463Z,1024.37
2018-02-27T01:32:55.470Z,1024.37
2018-02-27T01:33:55.471Z,1024.38
2018-02-27T01:34:55.469Z,1024.35
2018-02-27T01:35:55.470Z,1024.39
2018-02-27T01:36:55.477Z,1024.4
2018-02-27T01:37:55.490Z,1024.39
2018-02-27T01:38:55.478Z,1024.36
2018-02-27T01:39:55.488Z,1024.33
2018-02-27T01:40:55.484Z,1024.33
2018-02-27T01:41:55.493Z,1024.36
2018-02-27T01:42:55.493Z,1024.29
2018-02-27T01:43:55.492Z,1024.34
2018-02-27T01:44:55.495Z,1024.32
2018-02-27T01:45:55.517Z,1024.31
2018-02-27T01:46:55.512Z,1024.3
2018-02-27T01:47:55.526Z,1024.33
2018-02-27T01:48:55.526Z,1024.29
2018-02-27T01:49:55.546Z,1024.28
2018-02-27T01:50:55.582Z,1024.27
2018-02-27T01:51:55.540Z,1024.27
2018-02-27T01:52:55.530Z,1024.25
2018-02-27T01:53:55.902Z,1024.24
2018-02-27T01:54:55.542Z,1024.24
2018-02-27T01:55:55.557Z,1024.22
2018-02-27T01:56:55.544Z,1024.22
2018-02-27T01:57:55.546Z,1024.21
2018-02-27T01:58:55.571Z,1024.24
2018-02-27T01:59:55.555Z,1024.22
2018-02-27T02:00:55.558Z,1024.23
2018-02-27T02:01:55.721Z,1024.21
2018-02-27T02:02:55.723Z,1024.19
2018-02-27T02:03:55.720Z,1024.21
2018-02-27T02:04:55.717Z,1024.18
2018-02-27T02:05:55.734Z,1024.17
2018-02-27T02:06:55.572Z,1024.16
2018-02-27T02:07:55.749Z,1024.2
2018-02-27T02:08:55.729Z,1024.14
2018-02-27T02:09:55.729Z,1024.1
2018-02-27T02:10:55.744Z,1024.07
2018-02-27T02:11:55.762Z,1024.07
2018-02-27T02:12:55.780Z,1024.03
2018-02-27T02:13:55.757Z,1024.07
2018-02-27T02:14:55.757Z,1024.07
2018-02-27T02:15:55.751Z,1024.02
2018-02-27T02:16:55.770Z,1024.03
2018-02-27T02:17:55.767Z,1024.06
2018-02-27T02:18:55.754Z,1023.99
2018-02-27T02:19:55.799Z,1023.99
2018-02-27T02:20:56.683Z,1024.01
2018-02-27T02:21:57.878Z,1024
2018-02-27T02:22:55.770Z,1023.99
2018-02-27T02:23:55.773Z,1023.99
2018-02-27T02:24:55.815Z,1023.99
2018-02-27T02:25:55.788Z,1024.02
2018-02-27T02:26:55.805Z,1023.98
2018-02-27T02:27:55.632Z,1023.96
2018-02-27T02:28:55.786Z,1023.96
2018-02-27T02:29:55.827Z,1023.95
2018-02-27T02:30:55.801Z,1023.96
2018-02-27T02:31:56.178Z,1023.93
2018-02-27T02:32:55.801Z,1023.89
2018-02-27T02:33:55.798Z,1023.89
2018-02-27T02:34:55.792Z,1023.88
2018-02-27T02:35:55.801Z,1023.93
2018-02-27T02:36:55.812Z,1023.93
2018-02-27T02:37:55.663Z,1023.88
2018-02-27T02:40:01.843Z,1023.91
2018-02-27T02:40:55.655Z,1023.89
2018-02-27T02:41:55.673Z,1023.89
2018-02-27T02:42:55.694Z,1023.89
2018-02-27T02:43:55.681Z,1023.87
2018-02-27T02:44:55.672Z,1023.91
2018-02-27T02:45:55.682Z,1023.88
2018-02-27T02:46:55.685Z,1023.85
2018-02-27T02:47:55.700Z,1023.86
2018-02-27T02:48:55.680Z,1023.87
2018-02-27T02:49:55.711Z,1023.87
2018-02-27T02:50:55.686Z,1023.84
2018-02-27T02:51:55.690Z,1023.86
2018-02-27T02:52:55.703Z,1023.91
2018-02-27T02:53:55.705Z,1023.89
2018-02-27T02:54:55.695Z,1023.88
2018-02-27T02:55:55.699Z,1023.87
2018-02-27T02:56:55.702Z,1023.86
2018-02-27T02:57:55.708Z,1023.87
2018-02-27T02:58:55.706Z,1023.88
2018-02-27T02:59:55.708Z,1023.85
2018-02-27T03:00:55.715Z,1023.89
2018-02-27T03:01:55.749Z,1023.87
2018-02-27T03:02:55.726Z,1023.83
2018-02-27T03:03:55.718Z,1023.81
2018-02-27T03:04:55.723Z,1023.8
2018-02-27T03:05:55.731Z,1023.82
2018-02-27T03:06:55.791Z,1023.84
2018-02-27T03:07:55.729Z,1023.8
2018-02-27T03:08:55.887Z,1023.81
2018-02-27T03:09:55.733Z,1023.81
2018-02-27T03:10:55.735Z,1023.83
2018-02-27T03:11:55.741Z,1023.81
2018-02-27T03:12:55.895Z,1023.81
2018-02-27T03:13:55.904Z,1023.78
2018-02-27T03:14:55.906Z,1023.8
2018-02-27T03:15:55.909Z,1023.77
2018-02-27T03:16:55.915Z,1023.76
2018-02-27T03:17:55.953Z,1023.75
2018-02-27T03:18:55.937Z,1023.76
2018-02-27T03:19:55.937Z,1023.76
2018-02-27T03:20:55.939Z,1023.74
2018-02-27T03:21:55.944Z,1023.74
2018-02-27T03:22:55.966Z,1023.73
2018-02-27T03:23:55.949Z,1023.7
2018-02-27T03:24:55.970Z,1023.69
2018-02-27T03:25:55.963Z,1023.62
2018-02-27T03:26:55.950Z,1023.64
2018-02-27T03:27:55.966Z,1023.62
2018-02-27T03:28:55.835Z,1023.58
2018-02-27T03:29:56.004Z,1023.6
2018-02-27T03:30:55.971Z,1023.56
2018-02-27T03:31:55.821Z,1023.57
2018-02-27T03:32:55.974Z,1023.56
2018-02-27T03:33:55.995Z,1023.54
2018-02-27T03:34:55.971Z,1023.54
2018-02-27T03:35:55.974Z,1023.56
2018-02-27T03:36:55.984Z,1023.54
2018-02-27T03:37:55.968Z,1023.53
2018-02-27T03:38:55.979Z,1023.48
2018-02-27T03:39:55.976Z,1023.5
2018-02-27T03:40:55.973Z,1023.5
2018-02-27T03:41:55.980Z,1023.53
2018-02-27T03:42:55.988Z,1023.48
2018-02-27T03:43:56.006Z,1023.51
2018-02-27T03:44:56.011Z,1023.47
2018-02-27T03:45:55.851Z,1023.49
2018-02-27T03:46:56.014Z,1023.49
2018-02-27T03:47:56.011Z,1023.47
2018-02-27T03:48:55.865Z,1023.46
2018-02-27T03:49:56.025Z,1023.45
2018-02-27T03:50:55.875Z,1023.47
2018-02-27T03:51:55.867Z,1023.37
2018-02-27T03:52:55.884Z,1023.43
2018-02-27T03:53:55.892Z,1023.41
2018-02-27T03:54:55.884Z,1023.4
2018-02-27T03:55:55.888Z,1023.41
2018-02-27T03:56:55.894Z,1023.39
2018-02-27T03:57:55.897Z,1023.36
2018-02-27T03:58:55.905Z,1023.38
2018-02-27T03:59:55.900Z,1023.33
2018-02-27T04:00:55.909Z,1023.33
2018-02-27T04:01:55.957Z,1023.3
2018-02-27T04:02:55.923Z,1023.35
2018-02-27T04:05:02.137Z,1023.3
2018-02-27T04:05:55.929Z,1023.28
2018-02-27T04:06:55.932Z,1023.27
2018-02-27T04:07:55.952Z,1023.23
2018-02-27T04:08:55.932Z,1023.22
2018-02-27T04:09:55.937Z,1023.17
2018-02-27T04:10:56.103Z,1023.2
2018-02-27T04:11:55.947Z,1023.19
2018-02-27T04:13:56.076Z,1023.18
2018-02-27T04:14:55.945Z,1023.19
2018-02-27T04:15:55.944Z,1023.19
2018-02-27T04:16:55.952Z,1023.16
2018-02-27T04:17:55.974Z,1023.17
2018-02-27T04:18:55.962Z,1023.16
2018-02-27T04:19:55.968Z,1023.12
2018-02-27T04:20:55.966Z,1023.19
2018-02-27T04:21:55.968Z,1023.17
2018-02-27T04:24:16.744Z,1023.17
2018-02-27T04:24:56.135Z,1023.16
2018-02-27T04:25:56.140Z,1023.14
2018-02-27T04:26:56.140Z,1023.13
2018-02-27T04:27:56.134Z,1023.12
2018-02-27T04:28:56.147Z,1023.1
2018-02-27T04:29:56.146Z,1023.13
2018-02-27T04:30:56.148Z,1023.16
2018-02-27T04:31:56.152Z,1023.14
2018-02-27T04:32:56.161Z,1023.19
2018-02-27T04:33:56.175Z,1023.15
2018-02-27T04:34:56.167Z,1023.17
2018-02-27T04:35:56.008Z,1023.2
2018-02-27T04:36:56.184Z,1023.17
2018-02-27T04:37:56.176Z,1023.1
2018-02-27T04:38:56.178Z,1023.13
2018-02-27T04:39:56.027Z,1023.16
2018-02-27T04:40:56.180Z,1023.19
2018-02-27T04:41:56.208Z,1023.17
2018-02-27T04:42:56.030Z,1023.16
2018-02-27T04:43:56.032Z,1023.18
2018-02-27T04:44:56.233Z,1023.2
2018-02-27T04:45:56.042Z,1023.18
2018-02-27T04:46:56.070Z,1023.17
2018-02-27T04:47:56.052Z,1023.18
2018-02-27T04:48:56.076Z,1023.19
2018-02-27T04:49:56.091Z,1023.18
2018-02-27T04:52:02.334Z,1023.24
2018-02-27T04:52:56.296Z,1023.22
2018-02-27T04:53:56.110Z,1023.23
2018-02-27T04:54:56.067Z,1023.25
2018-02-27T04:55:56.075Z,1023.23
2018-02-27T04:56:56.072Z,1023.25
2018-02-27T04:57:56.072Z,1023.25
2018-02-27T04:58:56.073Z,1023.27
2018-02-27T04:59:56.092Z,1023.24
2018-02-27T05:00:56.084Z,1023.26
2018-02-27T05:01:56.092Z,1023.26
2018-02-27T05:02:56.097Z,1023.23
2018-02-27T05:03:56.097Z,1023.25
2018-02-27T05:04:56.114Z,1023.24
2018-02-27T05:05:56.106Z,1023.26
2018-02-27T05:06:56.112Z,1023.26
2018-02-27T05:07:56.134Z,1023.28
2018-02-27T05:08:56.109Z,1023.23
2018-02-27T05:09:56.114Z,1023.29
2018-02-27T05:10:56.109Z,1023.24
2018-02-27T05:11:56.115Z,1023.26
2018-02-27T05:12:56.148Z,1023.25
2018-02-27T05:13:56.128Z,1023.26
2018-02-27T05:14:56.286Z,1023.29
2018-02-27T05:15:56.122Z,1023.31
2018-02-27T05:16:56.117Z,1023.2
2018-02-27T05:17:56.321Z,1023.24
2018-02-27T05:18:56.284Z,1023.21
2018-02-27T05:19:56.126Z,1023.21
2018-02-27T05:20:56.131Z,1023.18
2018-02-27T05:21:56.150Z,1023.18
2018-02-27T05:22:56.128Z,1023.19
2018-02-27T05:23:56.150Z,1023.18
2018-02-27T05:24:56.143Z,1023.19
2018-02-27T05:25:56.372Z,1023.2
2018-02-27T05:26:56.155Z,1023.18
2018-02-27T05:27:56.316Z,1023.16
2018-02-27T05:28:56.344Z,1023.2
2018-02-27T05:29:56.165Z,1023.16
2018-02-27T05:30:56.332Z,1023.16
2018-02-27T05:31:56.174Z,1023.17
2018-02-27T05:32:56.177Z,1023.13
2018-02-27T05:33:56.360Z,1023.14
2018-02-27T05:34:56.195Z,1023.15
2018-02-27T05:35:56.188Z,1023.11
2018-02-27T05:36:56.356Z,1023.15
2018-02-27T05:37:56.335Z,1023.08
2018-02-27T05:38:56.352Z,1023.11
2018-02-27T05:39:56.355Z,1023.13
2018-02-27T05:40:56.373Z,1023.14
2018-02-27T05:41:56.382Z,1023.14
2018-02-27T05:42:56.365Z,1023.14
2018-02-27T05:43:56.361Z,1023.12
2018-02-27T05:44:56.368Z,1023.15
2018-02-27T05:45:56.405Z,1023.18
2018-02-27T05:46:56.379Z,1023.12
2018-02-27T05:47:56.369Z,1023.19
2018-02-27T05:48:56.379Z,1023.19
2018-02-27T05:49:56.399Z,1023.22
2018-02-27T05:50:56.381Z,1023.17
2018-02-27T05:51:56.387Z,1023.2
2018-02-27T05:52:56.384Z,1023.2
2018-02-27T05:53:56.410Z,1023.18
2018-02-27T05:54:56.239Z,1023.19
2018-02-27T05:55:56.246Z,1023.17
2018-02-27T05:56:56.280Z,1023.25
2018-02-27T05:57:56.250Z,1023.26
2018-02-27T05:58:56.254Z,1023.29
2018-02-27T05:59:56.320Z,1023.27
2018-02-27T06:00:56.289Z,1023.27
2018-02-27T06:01:56.431Z,1023.29
2018-02-27T06:02:56.359Z,1023.3
2018-02-27T06:03:56.282Z,1023.27
2018-02-27T06:04:56.509Z,1023.24
2018-02-27T06:05:56.288Z,1023.24
2018-02-27T06:06:56.280Z,1023.27
2018-02-27T06:07:56.319Z,1023.25
2018-02-27T06:08:56.293Z,1023.24
2018-02-27T06:09:56.373Z,1023.24
2018-02-27T06:10:56.313Z,1023.28
2018-02-27T06:11:56.327Z,1023.26
2018-02-27T06:12:56.322Z,1023.28
2018-02-27T06:13:56.325Z,1023.27
2018-02-27T06:14:56.476Z,1023.3
2018-02-27T06:15:56.357Z,1023.29
2018-02-27T06:16:56.337Z,1023.29
2018-02-27T06:17:56.329Z,1023.28
2018-02-27T06:18:56.346Z,1023.25
2018-02-27T06:19:56.326Z,1023.29
2018-02-27T06:20:56.350Z,1023.26
2018-02-27T06:21:56.345Z,1023.3
2018-02-27T06:22:56.329Z,1023.27
2018-02-27T06:23:56.334Z,1023.27
2018-02-27T06:24:56.338Z,1023.3
2018-02-27T06:25:56.341Z,1023.29
2018-02-27T06:26:56.527Z,1023.3
2018-02-27T06:27:56.508Z,1023.31
2018-02-27T06:28:56.513Z,1023.33
2018-02-27T06:29:56.370Z,1023.35
2018-02-27T06:30:56.525Z,1023.32
2018-02-27T06:31:56.530Z,1023.3
2018-02-27T06:32:56.405Z,1023.36
2018-02-27T06:33:56.381Z,1023.35
2018-02-27T06:34:56.376Z,1023.37
2018-02-27T06:35:56.369Z,1023.35
2018-02-27T06:36:56.380Z,1023.36
2018-02-27T06:37:56.384Z,1023.4
2018-02-27T06:38:56.386Z,1023.4
2018-02-27T06:39:56.396Z,1023.44
2018-02-27T06:40:56.398Z,1023.4
2018-02-27T06:41:56.561Z,1023.43
2018-02-27T06:42:56.397Z,1023.39
2018-02-27T06:43:56.408Z,1023.34
2018-02-27T06:44:56.413Z,1023.37
2018-02-27T06:45:56.401Z,1023.35
2018-02-27T06:46:56.416Z,1023.41
2018-02-27T06:47:56.576Z,1023.35
2018-02-27T06:48:56.575Z,1023.43
2018-02-27T06:49:56.590Z,1023.42
2018-02-27T06:50:56.588Z,1023.36
2018-02-27T06:51:56.431Z,1023.34
2018-02-27T06:52:56.598Z,1023.36
2018-02-27T06:53:56.600Z,1023.37
2018-02-27T06:54:56.609Z,1023.36
2018-02-27T06:55:56.656Z,1023.32
2018-02-27T06:56:56.624Z,1023.35
2018-02-27T06:57:56.620Z,1023.33
2018-02-27T06:58:56.628Z,1023.33
2018-02-27T06:59:56.631Z,1023.33
2018-02-27T07:00:56.638Z,1023.33
2018-02-27T07:01:56.638Z,1023.31
2018-02-27T07:02:56.644Z,1023.3
2018-02-27T07:03:56.643Z,1023.3
2018-02-27T07:04:56.668Z,1023.33
2018-02-27T07:05:56.493Z,1023.29
2018-02-27T07:06:56.547Z,1023.28
2018-02-27T07:07:56.497Z,1023.3
2018-02-27T07:08:56.500Z,1023.32
2018-02-27T07:09:56.655Z,1023.29
2018-02-27T07:10:56.505Z,1023.26
2018-02-27T07:11:56.506Z,1023.27
2018-02-27T07:12:56.676Z,1023.25
2018-02-27T07:13:56.666Z,1023.31
2018-02-27T07:14:56.673Z,1023.32
2018-02-27T07:15:56.515Z,1023.3
2018-02-27T07:16:56.525Z,1023.32
2018-02-27T07:17:56.552Z,1023.34
2018-02-27T07:18:56.721Z,1023.35
2018-02-27T07:19:56.689Z,1023.3
2018-02-27T07:20:56.701Z,1023.32
2018-02-27T07:21:56.694Z,1023.35
2018-02-27T07:22:56.696Z,1023.33
2018-02-27T07:23:56.535Z,1023.3
2018-02-27T07:24:56.549Z,1023.33
2018-02-27T07:25:56.560Z,1023.32
2018-02-27T07:26:56.672Z,1023.29
2018-02-27T07:27:56.736Z,1023.3
2018-02-27T07:28:56.741Z,1023.28
2018-02-27T07:29:56.558Z,1023.31
2018-02-27T07:30:56.563Z,1023.32
2018-02-27T07:31:56.569Z,1023.26
2018-02-27T07:32:56.573Z,1023.29
2018-02-27T07:33:56.747Z,1023.3
2018-02-27T07:34:56.750Z,1023.33
2018-02-27T07:35:56.735Z,1023.28
2018-02-27T07:36:56.577Z,1023.3
2018-02-27T07:37:56.585Z,1023.29
2018-02-27T07:38:56.597Z,1023.35
2018-02-27T07:39:56.650Z,1023.36
2018-02-27T07:40:56.598Z,1023.36
2018-02-27T07:41:56.624Z,1023.36
2018-02-27T07:42:56.596Z,1023.4
2018-02-27T07:43:56.610Z,1023.39
2018-02-27T07:44:56.676Z,1023.37
2018-02-27T07:45:56.602Z,1023.38
2018-02-27T07:46:56.787Z,1023.42
2018-02-27T07:47:56.771Z,1023.39
2018-02-27T07:48:56.611Z,1023.43
2018-02-27T07:49:56.606Z,1023.38
2018-02-27T07:50:56.626Z,1023.44
2018-02-27T07:51:56.640Z,1023.41
2018-02-27T07:52:56.782Z,1023.45
2018-02-27T07:53:56.640Z,1023.42
2018-02-27T07:54:56.640Z,1023.45
2018-02-27T07:55:57.088Z,1023.44
2018-02-27T07:56:56.649Z,1023.43
2018-02-27T07:57:56.645Z,1023.47
2018-02-27T07:58:56.644Z,1023.44
2018-02-27T07:59:56.805Z,1023.52
2018-02-27T08:00:56.835Z,1023.43
2018-02-27T08:01:56.802Z,1023.49
2018-02-27T08:02:56.804Z,1023.43
2018-02-27T08:03:56.890Z,1023.41
2018-02-27T08:04:56.828Z,1023.45
2018-02-27T08:05:56.826Z,1023.43
2018-02-27T08:06:56.662Z,1023.42
2018-02-27T08:07:56.839Z,1023.36
2018-02-27T08:08:56.820Z,1023.32
2018-02-27T08:09:56.842Z,1023.3
2018-02-27T08:10:56.835Z,1023.26
2018-02-27T08:11:56.673Z,1023.35
2018-02-27T08:12:56.837Z,1023.34
2018-02-27T08:13:56.841Z,1023.36
2018-02-27T08:14:56.867Z,1023.38
2018-02-27T08:15:57.257Z,1023.37
2018-02-27T08:16:56.862Z,1023.35
2018-02-27T08:17:56.859Z,1023.37
2018-02-27T08:18:56.709Z,1023.39
2018-02-27T08:19:56.867Z,1023.38
2018-02-27T08:20:56.741Z,1023.35
2018-02-27T08:21:56.885Z,1023.37
2018-02-27T08:22:56.897Z,1023.35
2018-02-27T08:23:56.871Z,1023.35
2018-02-27T08:24:56.861Z,1023.35
2018-02-27T08:25:56.892Z,1023.36
2018-02-27T08:26:56.864Z,1023.33
2018-02-27T08:27:56.869Z,1023.33
2018-02-27T08:28:56.878Z,1023.32
2018-02-27T08:29:56.930Z,1023.35
2018-02-27T08:30:56.917Z,1023.36
2018-02-27T08:31:56.889Z,1023.32
2018-02-27T08:32:56.734Z,1023.4
2018-02-27T08:33:56.885Z,1023.28
2018-02-27T08:34:56.741Z,1023.26
2018-02-27T08:35:56.725Z,1023.3
2018-02-27T08:36:56.773Z,1023.28
2018-02-27T08:37:56.747Z,1023.23
2018-02-27T08:38:56.745Z,1023.2
2018-02-27T08:39:56.748Z,1023.2
2018-02-27T08:40:56.756Z,1023.18
2018-02-27T08:41:56.953Z,1023.2
2018-02-27T08:42:56.918Z,1023.16
2018-02-27T08:43:56.926Z,1023.19
2018-02-27T08:44:56.782Z,1023.12
2018-02-27T08:45:56.789Z,1023.14
2018-02-27T08:46:56.794Z,1023.13
2018-02-27T08:47:56.771Z,1023.16
2018-02-27T08:48:56.797Z,1023.16
2018-02-27T08:49:56.774Z,1023.19
2018-02-27T08:50:56.924Z,1023.14
2018-02-27T08:51:56.783Z,1023.12
2018-02-27T08:52:56.820Z,1023.16
2018-02-27T08:53:56.792Z,1023.14
2018-02-27T08:54:56.981Z,1023.1
2018-02-27T08:55:56.989Z,1023.09
2018-02-27T08:56:56.797Z,1023.09
2018-02-27T08:57:56.957Z,1023.11
2018-02-27T08:58:56.800Z,1023.1
2018-02-27T08:59:56.802Z,1023.13
2018-02-27T09:00:56.812Z,1023.08
2018-02-27T09:01:56.801Z,1023.06
2018-02-27T09:02:56.802Z,1023.09
2018-02-27T09:03:56.814Z,1023.06
2018-02-27T09:04:56.820Z,1023.04
2018-02-27T09:05:56.820Z,1023.09
2018-02-27T09:06:56.832Z,1023.08
2018-02-27T09:07:56.835Z,1023.04
2018-02-27T09:08:56.840Z,1023.03
2018-02-27T09:09:56.845Z,1023.03
2018-02-27T09:10:56.859Z,1023.03
2018-02-27T09:11:57.009Z,1023.02
2018-02-27T09:12:57.008Z,1023.04
2018-02-27T09:13:57.010Z,1023.04
2018-02-27T09:14:57.013Z,1023.01
2018-02-27T09:15:57.016Z,1022.99
2018-02-27T09:16:56.854Z,1023
2018-02-27T09:17:57.005Z,1023.03
2018-02-27T09:18:57.008Z,1022.97
2018-02-27T09:19:57.022Z,1022.99
2018-02-27T09:20:56.857Z,1022.98
2018-02-27T09:21:57.024Z,1022.94
2018-02-27T09:22:57.037Z,1022.94
2018-02-27T09:23:57.039Z,1022.93
2018-02-27T09:24:57.070Z,1022.91
2018-02-27T09:25:57.049Z,1022.93
2018-02-27T09:26:57.036Z,1022.87
2018-02-27T09:27:57.037Z,1022.92
2018-02-27T09:28:57.045Z,1022.87
2018-02-27T09:29:57.348Z,1022.9
2018-02-27T09:30:57.047Z,1022.84
2018-02-27T09:31:57.053Z,1022.81
2018-02-27T09:32:57.056Z,1022.79
2018-02-27T09:33:57.060Z,1022.77
2018-02-27T09:34:57.168Z,1022.82
2018-02-27T09:35:57.069Z,1022.82
2018-02-27T09:36:57.066Z,1022.78
2018-02-27T09:37:57.072Z,1022.8
2018-02-27T09:38:57.085Z,1022.76
2018-02-27T09:39:57.103Z,1022.79
2018-02-27T09:40:57.085Z,1022.75
2018-02-27T09:41:57.080Z,1022.75
2018-02-27T09:42:57.109Z,1022.78
2018-02-27T09:43:57.091Z,1022.76
2018-02-27T09:44:57.106Z,1022.76
2018-02-27T09:45:57.089Z,1022.75
2018-02-27T09:46:56.986Z,1022.76
2018-02-27T09:47:56.942Z,1022.71
2018-02-27T09:48:56.947Z,1022.77
2018-02-27T09:49:56.952Z,1022.74
2018-02-27T09:50:56.959Z,1022.75
2018-02-27T09:51:56.963Z,1022.72
2018-02-27T09:52:56.958Z,1022.76
2018-02-27T09:53:57.120Z,1022.75
2018-02-27T09:54:57.109Z,1022.68
2018-02-27T09:55:57.050Z,1022.71
2018-02-27T09:56:56.975Z,1022.67
2018-02-27T09:57:57.019Z,1022.67
2018-02-27T09:58:56.976Z,1022.66
2018-02-27T09:59:56.991Z,1022.64
2018-02-27T10:00:56.991Z,1022.65
2018-02-27T10:01:56.994Z,1022.65
2018-02-27T10:02:57.017Z,1022.68
2018-02-27T10:03:56.997Z,1022.7
2018-02-27T10:04:57.028Z,1022.65
2018-02-27T10:05:57.002Z,1022.68
2018-02-27T10:06:57.004Z,1022.68
2018-02-27T10:07:57.008Z,1022.69
2018-02-27T10:08:57.018Z,1022.66
2018-02-27T10:09:57.060Z,1022.63
2018-02-27T10:10:57.029Z,1022.64
2018-02-27T10:11:57.040Z,1022.61
2018-02-27T10:12:57.035Z,1022.64
2018-02-27T10:13:57.039Z,1022.61
2018-02-27T10:16:57.132Z,1022.63
2018-02-27T10:17:57.053Z,1022.64
2018-02-27T10:18:57.062Z,1022.64
2018-02-27T10:19:57.102Z,1022.6
2018-02-27T10:20:57.074Z,1022.6
2018-02-27T10:21:57.062Z,1022.57
2018-02-27T10:22:57.228Z,1022.62
2018-02-27T10:25:03.439Z,1022.63
2018-02-27T10:25:57.230Z,1022.61
2018-02-27T10:26:57.238Z,1022.63
2018-02-27T10:27:57.244Z,1022.59
2018-02-27T10:28:57.252Z,1022.61
2018-02-27T10:29:57.279Z,1022.63
2018-02-27T10:30:57.271Z,1022.54
2018-02-27T10:31:57.119Z,1022.62
2018-02-27T10:32:57.290Z,1022.59
2018-02-27T10:33:57.261Z,1022.55
2018-02-27T10:34:57.565Z,1022.54
2018-02-27T10:35:57.327Z,1022.46
2018-02-27T10:36:57.265Z,1022.53
2018-02-27T10:37:57.265Z,1022.53
2018-02-27T10:38:57.114Z,1022.54
2018-02-27T10:39:57.325Z,1022.53
2018-02-27T10:40:57.127Z,1022.47
2018-02-27T10:41:57.137Z,1022.54
2018-02-27T10:42:57.124Z,1022.51
2018-02-27T10:43:57.131Z,1022.51
2018-02-27T10:44:57.135Z,1022.48
2018-02-27T10:45:57.181Z,1022.47
2018-02-27T10:46:57.147Z,1022.42
2018-02-27T10:47:57.148Z,1022.4
2018-02-27T10:48:57.313Z,1022.39
2018-02-27T10:49:57.304Z,1022.38
2018-02-27T10:50:57.180Z,1022.39
2018-02-27T10:51:57.171Z,1022.37
2018-02-27T10:52:57.162Z,1022.36
2018-02-27T10:53:57.169Z,1022.3
2018-02-27T10:54:57.240Z,1022.3
2018-02-27T10:55:57.165Z,1022.31
2018-02-27T10:56:57.201Z,1022.31
2018-02-27T10:57:57.183Z,1022.31
2018-02-27T10:58:57.189Z,1022.26
2018-02-27T10:59:57.191Z,1022.29
2018-02-27T11:00:57.182Z,1022.25
2018-02-27T11:01:57.219Z,1022.3
2018-02-27T11:02:57.190Z,1022.21
2018-02-27T11:03:57.182Z,1022.23
2018-02-27T11:04:57.185Z,1022.3
2018-02-27T11:05:57.196Z,1022.24
2018-02-27T11:06:57.203Z,1022.27
2018-02-27T11:07:57.211Z,1022.26
2018-02-27T11:08:57.198Z,1022.26
2018-02-27T11:11:03.432Z,1022.19
2018-02-27T11:11:57.229Z,1022.16
2018-02-27T11:12:57.213Z,1022.16
2018-02-27T11:13:57.327Z,1022.2
2018-02-27T11:14:57.250Z,1022.16
2018-02-27T11:15:57.425Z,1022.12
2018-02-27T11:16:57.286Z,1022.12
2018-02-27T11:17:57.226Z,1022.15
2018-02-27T11:18:57.234Z,1022.08
2018-02-27T11:19:57.367Z,1022.13
2018-02-27T11:20:57.241Z,1022.12
2018-02-27T11:21:57.278Z,1022.06
2018-02-27T11:22:57.244Z,1022.1
2018-02-27T11:23:57.262Z,1022.05
2018-02-27T11:24:57.409Z,1022.05
2018-02-27T11:25:57.262Z,1022.05
2018-02-27T11:26:57.268Z,1022.05
2018-02-27T11:27:57.273Z,1022.02
2018-02-27T11:28:57.282Z,1022.01
2018-02-27T11:29:57.278Z,1021.99
2018-02-27T11:30:57.300Z,1021.93
2018-02-27T11:31:57.301Z,1021.94
2018-02-27T11:32:57.314Z,1021.92
2018-02-27T11:33:57.293Z,1021.95
2018-02-27T11:34:57.310Z,1021.92
2018-02-27T11:35:57.455Z,1021.89
2018-02-27T11:36:57.482Z,1021.94
2018-02-27T11:37:57.464Z,1021.87
2018-02-27T11:38:57.506Z,1021.85
2018-02-27T11:39:57.302Z,1021.9
2018-02-27T11:40:57.477Z,1021.87
2018-02-27T11:41:57.353Z,1021.87
2018-02-27T11:42:57.478Z,1021.87
2018-02-27T11:43:57.311Z,1021.83
2018-02-27T11:44:57.474Z,1021.86
2018-02-27T11:45:57.476Z,1021.84
2018-02-27T11:46:57.514Z,1021.84
2018-02-27T11:47:57.501Z,1021.77
2018-02-27T11:48:57.500Z,1021.8
2018-02-27T11:49:57.512Z,1021.77
2018-02-27T11:50:57.505Z,1021.77
2018-02-27T11:51:57.357Z,1021.7
2018-02-27T11:52:57.362Z,1021.73
2018-02-27T11:53:57.369Z,1021.73
2018-02-27T11:54:57.379Z,1021.7
2018-02-27T11:55:57.375Z,1021.67
2018-02-27T11:56:57.377Z,1021.67
2018-02-27T11:57:57.386Z,1021.68
2018-02-27T11:58:57.378Z,1021.69
2018-02-27T11:59:57.386Z,1021.7
2018-02-27T12:00:57.378Z,1021.71
2018-02-27T12:01:57.390Z,1021.69
2018-02-27T12:02:57.391Z,1021.66
2018-02-27T12:03:57.396Z,1021.64
2018-02-27T12:04:57.397Z,1021.63
2018-02-27T12:05:57.403Z,1021.62
2018-02-27T12:06:57.399Z,1021.58
2018-02-27T12:07:57.425Z,1021.58
2018-02-27T12:08:57.407Z,1021.56
2018-02-27T12:09:57.415Z,1021.6
2018-02-27T12:10:57.419Z,1021.57
2018-02-27T12:11:57.399Z,1021.58
2018-02-27T12:12:57.410Z,1021.55
2018-02-27T12:13:57.416Z,1021.55
2018-02-27T12:14:57.417Z,1021.55
2018-02-27T12:15:57.423Z,1021.53
2018-02-27T12:16:57.432Z,1021.52
2018-02-27T12:17:57.436Z,1021.59
2018-02-27T12:18:57.439Z,1021.58
2018-02-27T12:19:57.459Z,1021.54